createdAt,value
2023-02-15T00:00:55.779Z,1.24
2023-02-15T00:03:30.200Z,0.93
2023-02-15T00:06:05.502Z,0.87
2023-02-15T00:08:38.234Z,1.00
2023-02-15T00:11:13.127Z,0.83
2023-02-15T00:13:45.874Z,1.04
2023-02-15T00:16:18.631Z,1.21
2023-02-15T00:18:53.982Z,1.09
2023-02-15T00:21:28.095Z,1.21
2023-02-15T00:24:02.865Z,0.92
2023-02-15T00:26:36.515Z,1.37
2023-02-15T00:29:09.389Z,1.23
2023-02-15T00:31:42.301Z,1.55
2023-02-15T00:34:17.128Z,1.24
2023-02-15T00:36:51.713Z,1.06
2023-02-15T00:39:24.772Z,0.92
2023-02-15T00:41:57.504Z,1.15
2023-02-15T00:44:30.510Z,1.49
2023-02-15T00:47:03.319Z,1.27
2023-02-15T00:49:36.105Z,1.06
2023-02-15T00:52:10.237Z,1.11
2023-02-15T00:54:42.940Z,1.03
2023-02-15T00:57:15.710Z,1.37
2023-02-15T00:59:48.843Z,1.26
2023-02-15T01:02:21.625Z,1.36
2023-02-15T01:04:54.546Z,1.46
2023-02-15T01:07:30.427Z,1.58
2023-02-15T01:10:03.276Z,1.79
2023-02-15T01:12:36.309Z,1.65
2023-02-15T01:15:09.719Z,1.07
2023-02-15T01:17:44.965Z,1.56
2023-02-15T01:20:18.047Z,1.57
2023-02-15T01:22:52.769Z,1.55
2023-02-15T01:25:26.386Z,1.77
2023-02-15T01:27:59.116Z,1.40
2023-02-15T01:30:31.847Z,1.75
2023-02-15T01:33:04.760Z,2.13
2023-02-15T01:35:38.720Z,1.75
2023-02-15T01:38:12.953Z,1.46
2023-02-15T01:40:45.776Z,1.67
2023-02-15T01:43:19.140Z,1.56
2023-02-15T01:45:52.083Z,1.03
2023-02-15T01:48:29.394Z,1.44
2023-02-15T01:51:04.468Z,1.59
2023-02-15T01:53:42.259Z,1.23
2023-02-15T01:56:19.544Z,1.54
2023-02-15T01:58:58.752Z,1.55
2023-02-15T02:01:31.904Z,1.64
2023-02-15T02:04:11.214Z,1.21
2023-02-15T02:06:44.087Z,0.54
2023-02-15T02:09:18.246Z,1.14
2023-02-15T02:11:51.142Z,1.49
2023-02-15T02:14:25.573Z,1.33
2023-02-15T02:17:04.731Z,1.10
2023-02-15T02:19:59.935Z,1.36
2023-02-15T02:22:59.528Z,1.27
2023-02-15T02:26:22.859Z,1.00
2023-02-15T02:29:35.256Z,1.31
2023-02-15T02:32:33.215Z,1.35
2023-02-15T02:35:13.616Z,0.39
2023-02-15T02:37:50.531Z,0.66
2023-02-15T02:40:32.437Z,0.84
2023-02-15T02:43:12.710Z,0.54
2023-02-15T02:45:47.659Z,0.20
2023-02-15T02:48:23.657Z,0.90
2023-02-15T02:50:57.837Z,0.55
2023-02-15T02:53:33.269Z,0.96
2023-02-15T02:56:12.304Z,0.61
2023-02-15T02:58:49.609Z,1.03
2023-02-15T03:01:26.792Z,1.12
2023-02-15T03:04:03.394Z,0.92
2023-02-15T03:06:42.514Z,0.89
2023-02-15T03:09:20.626Z,0.45
2023-02-15T03:11:54.606Z,-0.01
2023-02-15T03:14:29.225Z,0.35
2023-02-15T03:17:03.693Z,0.23
2023-02-15T03:19:38.678Z,0.26
2023-02-15T03:22:20.253Z,0.18
2023-02-15T03:24:58.874Z,0.19
2023-02-15T03:27:38.010Z,0.47
2023-02-15T03:30:13.098Z,0.68
2023-02-15T03:32:48.652Z,0.13
2023-02-15T03:35:27.076Z,0.51
2023-02-15T03:38:03.568Z,0.30
2023-02-15T03:40:57.212Z,0.37
2023-02-15T03:43:39.890Z,0.35
2023-02-15T03:46:18.509Z,0.35
2023-02-15T03:48:55.153Z,0.42
2023-02-15T03:51:39.047Z,0.05
2023-02-15T03:54:37.865Z,-0.12
2023-02-15T03:57:31.652Z,0.23
2023-02-15T04:00:25.238Z,-0.09
2023-02-15T04:03:11.213Z,0.04
2023-02-15T04:05:45.213Z,0.24
2023-02-15T04:08:17.925Z,0.14
2023-02-15T04:10:53.860Z,-0.11
2023-02-15T04:13:34.017Z,-0.27
2023-02-15T04:16:07.611Z,-0.35
2023-02-15T04:19:02.329Z,-0.16
2023-02-15T04:21:52.765Z,-0.31
2023-02-15T04:24:43.365Z,0.10
2023-02-15T04:27:17.883Z,-0.03
2023-02-15T04:29:51.048Z,-0.25
2023-02-15T04:32:23.855Z,-0.46
2023-02-15T04:34:56.647Z,-0.19
2023-02-15T04:37:29.436Z,-0.42
2023-02-15T04:40:02.267Z,-0.51
2023-02-15T04:42:36.515Z,-0.49
2023-02-15T04:45:09.791Z,-0.29
2023-02-15T04:47:43.256Z,-0.20
2023-02-15T04:50:16.119Z,-0.18
2023-02-15T04:52:49.015Z,0.22
2023-02-15T04:55:22.224Z,-0.20
2023-02-15T04:57:56.331Z,-0.04
2023-02-15T05:00:29.653Z,-0.17
2023-02-15T05:03:02.543Z,-0.14
2023-02-15T05:05:35.286Z,0.18
2023-02-15T05:08:08.174Z,-0.07
2023-02-15T05:10:40.877Z,-0.02
2023-02-15T05:13:14.987Z,-0.15
2023-02-15T05:15:51.348Z,-0.24
2023-02-15T05:18:24.173Z,-0.52
2023-02-15T05:20:56.989Z,-0.39
2023-02-15T05:23:29.764Z,-0.23
2023-02-15T05:26:19.959Z,-0.21
2023-02-15T05:28:54.165Z,-0.37
2023-02-15T05:31:27.245Z,-0.38
2023-02-15T05:34:00.213Z,-0.22
2023-02-15T05:36:33.010Z,0.00
2023-02-15T05:39:06.927Z,0.05
2023-02-15T05:41:39.985Z,0.30
2023-02-15T05:44:14.105Z,0.05
2023-02-15T05:46:46.944Z,-0.09
2023-02-15T05:49:19.697Z,-0.46
2023-02-15T05:51:52.527Z,-0.19
2023-02-15T05:54:25.506Z,0.05
2023-02-15T05:56:58.380Z,0.11
2023-02-15T05:59:32.503Z,-0.44
2023-02-15T06:02:07.414Z,-0.19
2023-02-15T06:04:40.247Z,-0.24
2023-02-15T06:07:13.379Z,-0.13
2023-02-15T06:09:46.261Z,0.16
2023-02-15T06:12:19.186Z,0.04
2023-02-15T06:14:53.701Z,0.25
2023-02-15T06:17:26.686Z,-0.34
2023-02-15T06:19:59.578Z,-0.08
2023-02-15T06:22:32.479Z,-0.13
2023-02-15T06:25:05.678Z,-0.16
2023-02-15T06:27:38.632Z,0.55
2023-02-15T06:30:14.660Z,0.32
2023-02-15T06:32:47.710Z,-0.10
2023-02-15T06:35:20.721Z,-0.16
2023-02-15T06:37:53.716Z,0.14
2023-02-15T06:40:26.567Z,0.44
2023-02-15T06:42:59.363Z,-0.22
2023-02-15T06:45:33.632Z,-0.01
2023-02-15T06:48:07.900Z,-0.58
2023-02-15T06:50:41.642Z,-0.67
2023-02-15T06:53:14.355Z,-0.68
2023-02-15T06:55:47.226Z,-0.48
2023-02-15T06:58:20.038Z,-0.38
2023-02-15T07:00:54.840Z,-0.30
2023-02-15T07:03:27.867Z,-0.15
2023-02-15T07:09:03.901Z,-0.51
2023-02-15T07:11:54.437Z,-0.26
2023-02-15T07:14:28.905Z,-0.26
2023-02-15T07:17:03.188Z,-0.51
2023-02-15T07:19:35.994Z,-0.58
2023-02-15T07:22:08.756Z,0.03
2023-02-15T07:24:41.506Z,-0.39
2023-02-15T07:27:14.249Z,-0.59
2023-02-15T07:29:47.027Z,-0.44
2023-02-15T07:32:21.514Z,-0.39
2023-02-15T07:34:54.282Z,-0.70
2023-02-15T07:37:27.838Z,-0.51
2023-02-15T07:40:00.612Z,-0.31
2023-02-15T07:42:33.390Z,-0.57
2023-02-15T07:45:06.920Z,-0.46
2023-02-15T07:47:41.012Z,-0.06
2023-02-15T07:50:13.773Z,-0.15
2023-02-15T07:52:46.601Z,-0.39
2023-02-15T07:55:22.107Z,-0.73
2023-02-15T07:57:55.024Z,-0.74
2023-02-15T08:00:27.836Z,-0.18
2023-02-15T08:03:17.053Z,0.22
2023-02-15T08:05:50.054Z,0.18
2023-02-15T08:08:31.915Z,0.22
2023-02-15T08:11:23.968Z,-0.23
2023-02-15T08:14:00.331Z,-0.28
2023-02-15T08:16:36.070Z,-0.09
2023-02-15T08:19:13.079Z,0.15
2023-02-15T08:21:47.197Z,0.30
2023-02-15T08:24:22.469Z,0.47
2023-02-15T08:26:55.734Z,0.55
2023-02-15T08:29:30.197Z,-0.04
2023-02-15T08:32:04.971Z,-0.34
2023-02-15T08:34:41.912Z,-0.30
2023-02-15T08:37:14.659Z,-0.44
2023-02-15T08:39:47.437Z,-0.33
2023-02-15T08:42:21.722Z,-0.10
2023-02-15T08:44:54.791Z,0.14
2023-02-15T08:47:27.782Z,-0.28
2023-02-15T08:50:01.904Z,0.05
2023-02-15T08:52:34.718Z,0.05
2023-02-15T08:55:07.929Z,0.12
2023-02-15T08:57:45.863Z,0.39
2023-02-15T09:00:19.839Z,0.14
2023-02-15T09:02:53.357Z,-0.08
2023-02-15T09:05:27.554Z,-0.12
2023-02-15T09:08:00.314Z,-0.13
2023-02-15T09:10:33.087Z,-0.07
2023-02-15T09:13:05.861Z,0.03
2023-02-15T09:15:38.604Z,-0.23
2023-02-15T09:18:13.337Z,-0.13
2023-02-15T09:20:50.487Z,0.10
2023-02-15T09:23:27.344Z,0.52
2023-02-15T09:26:04.800Z,0.24
2023-02-15T09:28:37.902Z,0.03
2023-02-15T09:31:13.617Z,-0.02
2023-02-15T09:33:48.040Z,-0.02
2023-02-15T09:36:24.142Z,0.64
2023-02-15T09:38:58.852Z,-0.13
2023-02-15T09:41:49.356Z,0.37
2023-02-15T09:44:36.067Z,0.56
2023-02-15T09:47:28.091Z,0.34
2023-02-15T09:50:08.620Z,0.78
2023-02-15T09:53:00.651Z,0.49
2023-02-15T09:55:47.624Z,1.14
2023-02-15T09:58:33.311Z,0.88
2023-02-15T10:01:14.275Z,1.34
2023-02-15T10:04:03.715Z,0.57
2023-02-15T10:06:45.373Z,0.82
2023-02-15T10:09:36.192Z,0.72
2023-02-15T10:12:30.992Z,1.30
2023-02-15T10:15:22.277Z,1.66
2023-02-15T10:18:07.509Z,1.30
2023-02-15T10:20:49.122Z,1.47
2023-02-15T10:23:48.440Z,0.82
2023-02-15T10:26:24.755Z,0.66
2023-02-15T10:29:02.833Z,1.01
2023-02-15T10:31:48.674Z,1.13
2023-02-15T10:34:25.285Z,1.19
2023-02-15T10:37:19.651Z,1.44
2023-02-15T10:40:03.432Z,0.97
2023-02-15T10:42:55.638Z,1.04
2023-02-15T10:45:37.147Z,1.12
2023-02-15T10:48:46.175Z,1.25
2023-02-15T10:51:25.546Z,1.20
2023-02-15T10:54:10.629Z,1.62
2023-02-15T10:56:52.950Z,1.51
2023-02-15T10:59:49.482Z,1.54
2023-02-15T11:02:35.481Z,1.85
2023-02-15T11:05:23.454Z,2.22
2023-02-15T11:08:00.421Z,2.54
2023-02-15T11:10:39.580Z,1.47
2023-02-15T11:13:16.714Z,2.07
2023-02-15T11:15:56.004Z,2.38
2023-02-15T11:18:35.297Z,2.26
2023-02-15T11:21:15.254Z,2.61
2023-02-15T11:23:49.435Z,2.43
2023-02-15T11:26:30.588Z,2.77
2023-02-15T11:29:12.417Z,2.77
2023-02-15T11:31:50.100Z,3.03
2023-02-15T11:34:28.818Z,3.31
2023-02-15T11:37:07.332Z,3.30
2023-02-15T11:39:40.217Z,3.21
2023-02-15T11:42:18.094Z,3.36
2023-02-15T11:45:01.443Z,3.07
2023-02-15T11:47:35.988Z,3.54
2023-02-15T11:50:14.115Z,3.54
2023-02-15T11:52:47.270Z,3.59
2023-02-15T11:55:23.083Z,4.11
2023-02-15T11:58:01.429Z,3.50
2023-02-15T12:00:38.394Z,3.55
2023-02-15T12:03:18.414Z,3.61
2023-02-15T12:05:56.396Z,4.06
2023-02-15T12:08:38.392Z,4.12
2023-02-15T12:11:14.954Z,3.58
2023-02-15T12:13:57.793Z,4.13
2023-02-15T12:16:34.443Z,4.70
2023-02-15T12:19:22.380Z,5.04
2023-02-15T12:21:55.662Z,5.31
2023-02-15T12:24:31.657Z,5.24
2023-02-15T12:27:06.881Z,4.81
2023-02-15T12:29:45.072Z,4.68
2023-02-15T12:32:25.121Z,5.96
2023-02-15T12:35:09.794Z,5.67
2023-02-15T12:37:56.141Z,5.80
2023-02-15T12:40:31.478Z,5.90
2023-02-15T12:43:09.710Z,6.44
2023-02-15T12:45:42.596Z,5.94
2023-02-15T12:48:18.047Z,6.38
2023-02-15T12:50:56.339Z,5.57
2023-02-15T12:53:34.005Z,5.70
2023-02-15T12:56:09.881Z,5.79
2023-02-15T12:58:43.920Z,6.00
2023-02-15T13:01:18.774Z,6.27
2023-02-15T13:04:00.735Z,5.80
2023-02-15T13:06:36.685Z,5.69
2023-02-15T13:09:17.960Z,5.86
2023-02-15T13:11:51.244Z,6.04
2023-02-15T13:14:30.659Z,6.07
2023-02-15T13:17:07.827Z,6.23
2023-02-15T13:19:44.927Z,6.03
2023-02-15T13:22:22.626Z,5.92
2023-02-15T13:24:59.276Z,6.29
2023-02-15T13:27:38.598Z,6.36
2023-02-15T13:30:22.629Z,6.66
2023-02-15T13:33:00.200Z,6.89
2023-02-15T13:35:43.321Z,6.54
2023-02-15T13:38:45.546Z,6.62
2023-02-15T13:41:22.565Z,6.73
2023-02-15T13:44:04.561Z,7.00
2023-02-15T13:46:51.060Z,7.05
2023-02-15T13:49:43.983Z,7.04
2023-02-15T13:52:22.806Z,6.76
2023-02-15T13:55:12.571Z,6.51
2023-02-15T13:58:24.843Z,6.32
2023-02-15T14:01:08.396Z,6.44
2023-02-15T14:04:01.473Z,7.00
2023-02-15T14:06:50.613Z,7.62
2023-02-15T14:09:40.835Z,7.86
2023-02-15T14:12:37.397Z,6.39
2023-02-15T14:15:30.629Z,7.73
2023-02-15T14:18:17.210Z,7.77
2023-02-15T14:21:04.698Z,7.58
2023-02-15T14:23:54.855Z,6.85
2023-02-15T14:26:39.304Z,7.60
2023-02-15T14:29:25.333Z,7.71
2023-02-15T14:32:02.737Z,7.73
2023-02-15T14:34:44.375Z,6.85
2023-02-15T14:37:25.097Z,7.48
2023-02-15T14:40:20.490Z,6.63
2023-02-15T14:42:59.575Z,6.99
2023-02-15T14:45:43.887Z,6.77
2023-02-15T14:48:23.854Z,6.57
2023-02-15T14:50:56.712Z,6.59
2023-02-15T14:53:39.317Z,6.85
2023-02-15T14:56:26.987Z,7.00
2023-02-15T14:59:21.872Z,7.03
2023-02-15T15:01:59.471Z,6.98
2023-02-15T15:04:36.371Z,7.33
2023-02-15T15:07:21.350Z,7.23
2023-02-15T15:10:04.529Z,6.82
2023-02-15T15:12:42.863Z,6.70
2023-02-15T15:15:34.345Z,5.96
2023-02-15T15:18:09.921Z,6.79
2023-02-15T15:20:51.672Z,7.22
2023-02-15T15:23:52.412Z,6.62
2023-02-15T15:26:34.288Z,6.04
2023-02-15T15:29:08.597Z,6.46
2023-02-15T15:31:53.726Z,6.76
2023-02-15T15:35:02.372Z,5.87
2023-02-15T15:38:07.214Z,5.98
2023-02-15T15:40:50.465Z,5.78
2023-02-15T15:43:58.926Z,5.86
2023-02-15T15:46:56.402Z,5.78
2023-02-15T15:49:32.774Z,6.03
2023-02-15T15:52:16.494Z,5.48
2023-02-15T15:54:54.574Z,5.75
2023-02-15T15:57:32.261Z,5.73
2023-02-15T16:00:07.332Z,5.40
2023-02-15T16:02:52.453Z,4.94
2023-02-15T16:05:25.940Z,5.22
2023-02-15T16:08:00.323Z,4.78
2023-02-15T16:10:35.021Z,4.68
2023-02-15T16:13:08.929Z,4.71
2023-02-15T16:15:50.344Z,4.21
2023-02-15T16:18:26.860Z,4.65
2023-02-15T16:21:02.380Z,4.78
2023-02-15T16:24:01.779Z,4.79
2023-02-15T16:26:52.031Z,4.61
2023-02-15T16:29:30.176Z,4.39
2023-02-15T16:32:05.179Z,4.21
2023-02-15T16:34:38.012Z,4.25
2023-02-15T16:37:18.026Z,4.29
2023-02-15T16:39:52.631Z,4.39
2023-02-15T16:42:26.003Z,4.25
2023-02-15T16:45:06.481Z,4.16
2023-02-15T16:47:41.979Z,3.84
2023-02-15T16:50:21.569Z,3.77
2023-02-15T16:52:55.086Z,3.98
2023-02-15T16:55:33.183Z,3.88
2023-02-15T16:58:08.806Z,3.40
2023-02-15T17:00:42.517Z,3.67
2023-02-15T17:03:26.779Z,3.65
2023-02-15T17:06:01.854Z,3.22
2023-02-15T17:08:45.368Z,2.59
2023-02-15T17:11:22.191Z,2.61
2023-02-15T17:14:22.695Z,2.69
2023-02-15T17:16:57.382Z,2.09
2023-02-15T17:19:33.401Z,2.25
2023-02-15T17:22:08.380Z,2.15
2023-02-15T17:24:43.571Z,1.79
2023-02-15T17:27:20.677Z,1.69
2023-02-15T17:29:57.571Z,1.69
2023-02-15T17:32:34.165Z,1.81
2023-02-15T17:35:11.201Z,1.89
2023-02-15T17:37:46.866Z,1.92
2023-02-15T17:40:25.227Z,2.20
2023-02-15T17:42:59.538Z,2.20
2023-02-15T17:45:35.044Z,2.32
2023-02-15T17:48:16.812Z,2.21
2023-02-15T17:50:50.022Z,1.82
2023-02-15T17:53:22.935Z,2.01
2023-02-15T17:55:54.861Z,1.70
2023-02-15T17:58:29.165Z,1.72
2023-02-15T18:01:23.830Z,1.72
2023-02-15T18:04:15.211Z,1.62
2023-02-15T18:07:05.618Z,1.74
2023-02-15T18:09:56.227Z,1.78
2023-02-15T18:12:31.751Z,1.77
2023-02-15T18:15:10.880Z,1.80
2023-02-15T18:17:48.328Z,2.10
2023-02-15T18:20:26.906Z,1.93
2023-02-15T18:23:01.988Z,1.71
2023-02-15T18:25:34.817Z,1.60
2023-02-15T18:28:07.614Z,2.11
2023-02-15T18:30:43.918Z,2.23
2023-02-15T18:33:30.430Z,2.20
2023-02-15T18:36:04.808Z,2.31
2023-02-15T18:38:37.829Z,1.92
2023-02-15T18:41:18.967Z,1.49
2023-02-15T18:43:53.790Z,1.81
2023-02-15T18:46:27.899Z,1.67
2023-02-15T18:49:00.684Z,2.17
2023-02-15T18:51:40.326Z,2.36
2023-02-15T18:54:19.959Z,2.30
2023-02-15T18:56:56.077Z,2.15
2023-02-15T18:59:30.516Z,2.20
2023-02-15T19:02:07.057Z,1.85
2023-02-15T19:04:39.944Z,2.10
2023-02-15T19:07:18.637Z,2.05
2023-02-15T19:09:54.814Z,1.96
2023-02-15T19:12:29.594Z,1.38
2023-02-15T19:15:02.671Z,1.41
2023-02-15T19:17:36.864Z,1.01
2023-02-15T19:20:16.436Z,0.87
2023-02-15T19:22:50.924Z,1.11
2023-02-15T19:25:27.230Z,1.53
2023-02-15T19:28:00.598Z,1.70
2023-02-15T19:30:33.963Z,1.56
2023-02-15T19:33:17.715Z,1.86
2023-02-15T19:35:54.245Z,2.11
2023-02-15T19:38:32.002Z,1.63
2023-02-15T19:41:08.338Z,1.90
2023-02-15T19:43:41.220Z,1.97
2023-02-15T19:46:19.862Z,1.77
2023-02-15T19:48:57.433Z,2.04
2023-02-15T19:51:30.314Z,1.49
2023-02-15T19:54:05.420Z,1.87
2023-02-15T19:56:38.268Z,2.15
2023-02-15T19:59:22.975Z,1.93
2023-02-15T20:01:59.625Z,1.86
2023-02-15T20:04:34.327Z,1.82
2023-02-15T20:07:11.433Z,1.98
2023-02-15T20:09:44.602Z,1.68
2023-02-15T20:12:21.745Z,1.49
2023-02-15T20:14:54.610Z,1.56
2023-02-15T20:17:27.428Z,1.39
2023-02-15T20:20:01.710Z,0.99
2023-02-15T20:22:35.940Z,1.19
2023-02-15T20:25:14.135Z,1.01
2023-02-15T20:27:47.846Z,1.22
2023-02-15T20:30:23.917Z,1.47
2023-02-15T20:32:56.965Z,1.23
2023-02-15T20:35:31.556Z,1.18
2023-02-15T20:38:05.605Z,1.17
2023-02-15T20:40:58.830Z,0.96
2023-02-15T20:43:31.696Z,0.85
2023-02-15T20:46:05.222Z,1.13
2023-02-15T20:48:38.341Z,1.31
2023-02-15T20:51:18.261Z,1.27
2023-02-15T20:53:51.154Z,1.22
2023-02-15T20:56:25.831Z,1.17
2023-02-15T20:58:58.666Z,1.31
2023-02-15T21:01:32.249Z,1.05
2023-02-15T21:04:07.270Z,1.20
2023-02-15T21:06:42.908Z,1.26
2023-02-15T21:09:17.528Z,1.00
2023-02-15T21:11:52.872Z,1.02
2023-02-15T21:14:27.653Z,1.09
2023-02-15T21:17:00.546Z,0.98
2023-02-15T21:19:33.387Z,0.75
2023-02-15T21:22:07.804Z,0.86
2023-02-15T21:24:44.482Z,0.28
2023-02-15T21:27:17.953Z,0.79
2023-02-15T21:29:50.868Z,0.70
2023-02-15T21:32:24.018Z,0.76
2023-02-15T21:34:56.851Z,0.93
2023-02-15T21:37:34.150Z,0.74
2023-02-15T21:40:15.835Z,0.49
2023-02-15T21:43:06.563Z,0.70
2023-02-15T21:46:11.381Z,0.58
2023-02-15T21:48:46.044Z,0.90
2023-02-15T21:51:36.793Z,0.69
2023-02-15T21:54:13.669Z,0.91
2023-02-15T21:56:48.324Z,0.81
2023-02-15T21:59:21.323Z,0.69
2023-02-15T22:01:54.233Z,0.42
2023-02-15T22:04:28.331Z,0.68
2023-02-15T22:07:01.160Z,0.92
2023-02-15T22:09:35.374Z,0.61
2023-02-15T22:12:15.742Z,1.18
2023-02-15T22:14:51.452Z,0.83
2023-02-15T22:17:28.151Z,0.52
2023-02-15T22:20:01.330Z,0.20
2023-02-15T22:22:34.779Z,0.36
2023-02-15T22:25:09.730Z,0.72
2023-02-15T22:27:44.644Z,0.95
2023-02-15T22:30:22.616Z,0.81
2023-02-15T22:32:56.852Z,1.09
2023-02-15T22:35:31.784Z,1.15
2023-02-15T22:38:04.712Z,0.99
2023-02-15T22:40:38.923Z,1.20
2023-02-15T22:43:31.995Z,0.72
2023-02-15T22:46:06.799Z,0.75
2023-02-15T22:48:39.726Z,0.93
2023-02-15T22:51:14.055Z,1.06
2023-02-15T22:53:49.776Z,0.92
2023-02-15T22:56:35.387Z,0.31
2023-02-15T22:59:11.882Z,0.49
2023-02-15T23:01:45.019Z,1.05
2023-02-15T23:04:19.768Z,1.24
2023-02-15T23:06:53.544Z,0.68
2023-02-15T23:09:26.438Z,0.53
2023-02-15T23:12:00.562Z,0.47
2023-02-15T23:14:36.290Z,0.59
2023-02-15T23:17:09.784Z,0.71
2023-02-15T23:19:42.873Z,0.87
2023-02-15T23:22:16.516Z,0.31
2023-02-15T23:24:53.716Z,0.87
2023-02-15T23:27:56.847Z,0.75
2023-02-15T23:30:30.023Z,1.05
2023-02-15T23:33:03.123Z,0.64
2023-02-15T23:35:36.215Z,0.48
2023-02-15T23:38:19.443Z,0.79
2023-02-15T23:41:13.893Z,1.20
2023-02-15T23:43:51.321Z,0.33
2023-02-15T23:46:28.228Z,0.56
2023-02-15T23:49:01.153Z,0.54
2023-02-15T23:51:33.958Z,0.74
2023-02-15T23:54:06.905Z,0.15
2023-02-15T23:56:40.615Z,0.59
2023-02-15T23:59:17.637Z,0.21
